Time;durP1;ratioP1;P1;durP2;ratioP2;P2;SDS_P1;SDS_P2;PMS_P1;PMS_P2;Temp;Humidity;BMP_temperature;BMP_pressure;BME280_temperature;BME280_humidity;BME280_pressure;Samples;Min_cycle;Max_cycle;Signal;HPM_P1;HPM_P2
2022/11/19 00:01:05;;;;;;;20.23;12.23;;;-0.60;99.90;;;;;;5093681;28;20202;-83
2022/11/19 00:03:33;;;;;;;19.53;11.40;;;-0.70;99.90;;;;;;5093059;28;20208;-82
2022/11/19 00:06:05;;;;;;;20.27;11.97;;;-0.60;99.90;;;;;;5091907;28;20304;-79
2022/11/19 00:08:32;;;;;;;19.37;11.63;;;-0.70;99.90;;;;;;5087308;28;20225;-80
2022/11/19 00:11:04;;;;;;;20.07;11.83;;;-0.70;99.90;;;;;;5092856;28;20229;-79
2022/11/19 00:13:30;;;;;;;19.67;11.37;;;-0.80;99.90;;;;;;5091702;28;20206;-79
2022/11/19 00:16:02;;;;;;;21.43;12.57;;;-0.80;99.90;;;;;;5085752;28;20202;-79
2022/11/19 00:18:29;;;;;;;19.57;11.53;;;-0.80;99.90;;;;;;5079484;28;20283;-79
2022/11/19 00:20:56;;;;;;;21.03;13.20;;;-0.80;99.90;;;;;;5096805;28;20205;-79
2022/11/19 00:23:24;;;;;;;20.37;12.10;;;-0.80;99.90;;;;;;5095947;28;20383;-79
2022/11/19 00:25:51;;;;;;;19.00;11.53;;;-0.90;99.90;;;;;;5085101;28;20224;-80
2022/11/19 00:28:17;;;;;;;20.63;12.60;;;-0.80;99.90;;;;;;5091992;28;20213;-79
2022/11/19 00:30:44;;;;;;;21.10;12.27;;;-0.90;99.90;;;;;;5077503;28;20238;-80
2022/11/19 00:33:11;;;;;;;19.40;11.93;;;-0.90;99.90;;;;;;5075746;28;20241;-80
2022/11/19 00:35:38;;;;;;;21.47;12.73;;;-1.00;99.90;;;;;;5089366;28;20190;-80
2022/11/19 00:38:05;;;;;;;20.37;11.80;;;-1.00;99.90;;;;;;5095863;28;20220;-81
2022/11/19 00:40:33;;;;;;;20.53;12.27;;;-1.00;99.90;;;;;;5096399;28;20207;-80
2022/11/19 00:45:45;;;;;;;21.07;12.40;;;-1.10;99.90;;;;;;5084559;28;20218;-80
2022/11/19 00:48:11;;;;;;;19.93;12.10;;;-1.10;99.90;;;;;;5091124;28;20650;-82
2022/11/19 00:50:38;;;;;;;21.93;11.93;;;-1.10;99.90;;;;;;5091888;28;20217;-80
2022/11/19 00:53:05;;;;;;;22.43;12.67;;;-1.20;99.90;;;;;;5075850;28;20206;-80
2022/11/19 00:55:33;;;;;;;21.63;12.57;;;-1.10;99.90;;;;;;5094067;28;20694;-79
2022/11/19 00:58:00;;;;;;;20.67;12.23;;;-1.10;99.90;;;;;;5076759;28;20526;-79
2022/11/19 01:00:26;;;;;;;22.30;13.30;;;-1.10;99.90;;;;;;5082879;28;20310;-80
2022/11/19 01:02:53;;;;;;;21.93;12.90;;;-1.10;99.90;;;;;;5076249;28;20212;-80
2022/11/19 01:05:20;;;;;;;21.90;12.40;;;-1.10;99.90;;;;;;5090174;28;20200;-79
2022/11/19 01:07:47;;;;;;;20.77;12.20;;;-1.10;99.90;;;;;;5076859;28;20258;-80
2022/11/19 01:10:13;;;;;;;21.67;12.63;;;-1.20;99.90;;;;;;5076479;28;20212;-79
2022/11/19 01:15:22;;;;;;;22.37;12.57;;;-1.30;99.90;;;;;;5088659;28;20202;-79
2022/11/19 01:17:49;;;;;;;21.93;12.67;;;-1.20;99.90;;;;;;5095423;28;20237;-80
2022/11/19 01:20:16;;;;;;;23.03;13.30;;;-1.30;99.90;;;;;;5096271;28;20208;-79
2022/11/19 01:22:45;;;;;;;21.20;12.07;;;-1.20;99.90;;;;;;5093536;28;20216;-80
2022/11/19 01:25:13;;;;;;;24.27;13.63;;;-1.30;99.90;;;;;;5093430;28;20266;-80
2022/11/19 01:27:39;;;;;;;21.23;11.93;;;-1.30;99.90;;;;;;5089474;28;20248;-80
2022/11/19 01:30:09;;;;;;;23.03;13.27;;;-1.30;99.90;;;;;;5093047;28;20654;-79
2022/11/19 01:32:36;;;;;;;23.17;13.47;;;-1.20;99.90;;;;;;5095149;28;20567;-81
2022/11/19 01:35:03;;;;;;;23.43;13.20;;;-1.30;99.90;;;;;;5090506;28;20582;-79
2022/11/19 01:37:30;;;;;;;20.77;12.17;;;-1.30;99.90;;;;;;5084708;28;20562;-81
2022/11/19 01:39:57;;;;;;;21.80;12.93;;;-1.30;99.90;;;;;;5085835;28;20289;-79
2022/11/19 01:45:22;;;;;;;23.20;13.50;;;-1.30;99.90;;;;;;5092521;28;20564;-80
2022/11/19 01:47:49;;;;;;;22.13;13.87;;;-1.40;99.90;;;;;;5077437;28;20249;-79
2022/11/19 01:50:17;;;;;;;24.20;13.17;;;-1.40;99.90;;;;;;5089151;28;20649;-78
2022/11/19 01:52:44;;;;;;;21.83;12.60;;;-1.50;99.90;;;;;;5089979;28;20251;-80
2022/11/19 01:55:11;;;;;;;23.07;13.43;;;-1.50;99.90;;;;;;5089680;28;20833;-80
2022/11/19 01:57:40;;;;;;;22.60;12.33;;;-1.50;99.90;;;;;;5094943;28;20214;-79
2022/11/19 02:00:10;;;;;;;22.17;13.73;;;-1.50;99.90;;;;;;5077095;28;20198;-79
2022/11/19 02:02:37;;;;;;;24.73;14.03;;;-1.50;99.90;;;;;;5094339;28;20200;-79
2022/11/19 02:05:04;;;;;;;22.70;13.43;;;-1.60;99.90;;;;;;5094694;28;20207;-80
2022/11/19 02:07:33;;;;;;;22.80;13.47;;;-1.60;99.90;;;;;;5074873;28;20241;-79
2022/11/19 02:10:02;;;;;;;23.37;13.27;;;-1.60;99.90;;;;;;5092159;28;20209;-81
2022/11/19 02:12:39;;;;;;;21.07;13.07;;;-1.60;99.90;;;;;;5086307;28;20207;-79
2022/11/19 02:15:20;;;;;;;24.30;14.17;;;-1.60;99.90;;;;;;5093883;28;20284;-80
2022/11/19 02:18:05;;;;;;;24.57;14.50;;;-1.60;99.90;;;;;;5092773;28;20221;-79
2022/11/19 02:20:45;;;;;;;25.13;14.53;;;-1.70;99.90;;;;;;5075230;28;20674;-78
2022/11/19 02:23:39;;;;;;;24.43;14.13;;;-1.70;99.90;;;;;;5073216;28;20210;-78
2022/11/19 02:26:35;;;;;;;24.67;13.43;;;-1.80;99.90;;;;;;5092628;28;20316;-78
2022/11/19 02:29:11;;;;;;;24.20;13.97;;;-1.70;99.90;;;;;;5091555;28;20217;-78
2022/11/19 02:31:44;;;;;;;24.60;14.07;;;-1.80;99.90;;;;;;5094540;28;20188;-80
2022/11/19 02:34:14;;;;;;;23.33;14.03;;;-1.70;99.90;;;;;;5092300;28;20232;-79
2022/11/19 02:36:45;;;;;;;23.27;14.03;;;-1.80;99.90;;;;;;5093937;28;20201;-80
2022/11/19 02:39:17;;;;;;;23.87;14.00;;;-1.80;99.90;;;;;;5087186;28;20214;-79
2022/11/19 02:41:50;;;;;;;24.40;14.27;;;-1.90;99.90;;;;;;5089627;28;20201;-79
2022/11/19 02:47:13;;;;;;;22.80;13.37;;;-1.90;99.90;;;;;;5093181;28;20219;-78
2022/11/19 02:49:43;;;;;;;23.67;13.77;;;-2.00;99.90;;;;;;5091893;28;20207;-80
2022/11/19 02:52:12;;;;;;;23.10;13.53;;;-2.00;99.90;;;;;;5093221;28;20670;-79
2022/11/19 02:54:39;;;;;;;23.47;13.53;;;-2.00;99.90;;;;;;5093075;28;20204;-79
2022/11/19 02:57:06;;;;;;;23.17;13.23;;;-2.00;99.90;;;;;;5089561;28;20189;-78
2022/11/19 03:05:21;;;;;;;27.13;15.37;;;-2.00;99.90;;;;;;5057641;28;20698;-79
2022/11/19 03:07:49;;;;;;;23.63;13.77;;;-2.00;99.90;;;;;;5075964;28;20249;-79
2022/11/19 03:10:19;;;;;;;21.10;13.30;;;-2.10;99.90;;;;;;5089982;28;20661;-79
2022/11/19 03:12:53;;;;;;;22.63;13.90;;;-2.10;99.90;;;;;;5074106;28;20693;-78
2022/11/19 03:18:33;;;;;;;23.50;13.53;;;-2.20;99.90;;;;;;5074384;28;20589;-80
2022/11/19 03:21:07;;;;;;;22.37;13.30;;;-2.20;99.90;;;;;;5070878;28;20222;-79
2022/11/19 03:23:39;;;;;;;23.00;14.00;;;-2.20;99.90;;;;;;5072537;28;20589;-79
2022/11/19 03:26:13;;;;;;;22.90;13.03;;;-2.20;99.90;;;;;;5076364;28;20205;-79
2022/11/19 03:28:41;;;;;;;23.33;14.13;;;-2.20;99.90;;;;;;5091639;28;20222;-79
2022/11/19 03:31:08;;;;;;;23.03;13.53;;;-2.20;99.90;;;;;;5093156;28;20200;-78
2022/11/19 03:33:41;;;;;;;23.03;13.87;;;-2.30;99.90;;;;;;5089348;28;20197;-79
2022/11/19 03:36:11;;;;;;;23.23;12.90;;;-2.30;99.90;;;;;;5092591;28;20196;-79
2022/11/19 03:38:43;;;;;;;22.70;12.87;;;-2.30;99.90;;;;;;5091436;28;20266;-78
2022/11/19 03:41:13;;;;;;;22.67;12.33;;;-2.30;99.90;;;;;;5085033;28;20193;-79
2022/11/19 03:43:43;;;;;;;22.53;12.47;;;-2.30;99.90;;;;;;5083013;28;20198;-79
2022/11/19 03:46:14;;;;;;;21.97;12.90;;;-2.30;99.90;;;;;;5084421;28;20214;-78
2022/11/19 03:48:44;;;;;;;21.93;13.20;;;-2.30;99.90;;;;;;5072834;28;20590;-78
2022/11/19 03:51:15;;;;;;;21.63;12.37;;;-2.30;99.90;;;;;;5071889;28;20693;-78
2022/11/19 03:53:42;;;;;;;22.10;13.57;;;-2.30;99.90;;;;;;5076286;28;20194;-78
2022/11/19 03:56:11;;;;;;;21.63;12.33;;;-2.30;99.90;;;;;;5093651;28;20285;-78
2022/11/19 03:58:40;;;;;;;22.57;14.07;;;-2.30;99.90;;;;;;5089925;28;20214;-79
2022/11/19 04:01:07;;;;;;;23.10;13.23;;;-2.30;99.90;;;;;;5088758;28;20426;-79
2022/11/19 04:03:34;;;;;;;22.23;12.50;;;-2.40;99.90;;;;;;5075894;28;20200;-78
2022/11/19 04:06:03;;;;;;;20.80;12.67;;;-2.40;99.90;;;;;;5092168;28;20198;-78
2022/11/19 04:08:29;;;;;;;21.77;13.03;;;-2.50;99.90;;;;;;5092654;28;20312;-78
2022/11/19 04:10:57;;;;;;;22.80;13.23;;;-2.50;99.90;;;;;;5093015;28;20221;-79
2022/11/19 04:13:23;;;;;;;22.27;13.30;;;-2.50;99.90;;;;;;5090042;28;20257;-79
2022/11/19 04:15:51;;;;;;;22.60;13.57;;;-2.50;99.90;;;;;;5070414;28;20194;-79
2022/11/19 04:18:18;;;;;;;23.17;14.03;;;-2.50;99.90;;;;;;5091248;28;20220;-78
2022/11/19 04:20:45;;;;;;;24.80;14.07;;;-2.50;99.90;;;;;;5089403;28;20204;-79
2022/11/19 04:23:13;;;;;;;21.50;12.87;;;-2.60;99.90;;;;;;5092410;28;20269;-79
2022/11/19 04:25:45;;;;;;;22.80;13.13;;;-2.50;99.90;;;;;;5092298;28;20208;-79
2022/11/19 04:28:12;;;;;;;23.47;13.97;;;-2.50;99.90;;;;;;5092476;28;20221;-77
2022/11/19 04:30:39;;;;;;;21.70;13.20;;;-2.60;99.90;;;;;;5092822;28;20270;-78
2022/11/19 04:33:05;;;;;;;23.63;13.60;;;-2.60;99.90;;;;;;5091052;28;20194;-78
2022/11/19 04:35:33;;;;;;;22.40;13.67;;;-2.60;99.90;;;;;;5092874;28;20198;-78
2022/11/19 04:37:59;;;;;;;24.33;14.40;;;-2.60;99.90;;;;;;5092390;28;20552;-78
2022/11/19 04:40:28;;;;;;;23.43;13.83;;;-2.70;99.90;;;;;;5092482;28;20198;-79
2022/11/19 04:42:54;;;;;;;22.07;12.90;;;-2.60;99.90;;;;;;5092203;28;20209;-78
2022/11/19 04:45:21;;;;;;;23.03;13.83;;;-2.70;99.90;;;;;;5083172;28;20208;-78
2022/11/19 04:47:48;;;;;;;24.87;14.33;;;-2.70;99.90;;;;;;5072409;28;20230;-78
2022/11/19 04:50:15;;;;;;;23.10;13.90;;;-2.80;99.90;;;;;;5088951;28;20203;-78
2022/11/19 04:52:41;;;;;;;22.70;13.50;;;-2.80;99.90;;;;;;5083554;28;20198;-79
2022/11/19 04:55:09;;;;;;;24.57;13.70;;;-2.80;99.90;;;;;;5083908;28;20193;-78
2022/11/19 04:57:37;;;;;;;23.00;14.10;;;-2.80;99.90;;;;;;5092637;28;20218;-78
2022/11/19 05:00:06;;;;;;;22.83;13.00;;;-2.80;99.90;;;;;;5095999;28;20197;-79
2022/11/19 05:02:34;;;;;;;21.87;12.40;;;-2.70;99.90;;;;;;5095708;28;20284;-82
2022/11/19 05:05:00;;;;;;;22.53;12.83;;;-2.70;99.90;;;;;;5096251;28;20212;-79
2022/11/19 05:07:27;;;;;;;22.70;13.67;;;-2.80;99.90;;;;;;5096002;28;20228;-80
2022/11/19 05:09:54;;;;;;;23.87;14.13;;;-2.80;99.90;;;;;;5076848;28;20194;-79
2022/11/19 05:12:21;;;;;;;21.07;12.43;;;-2.90;99.90;;;;;;5075475;28;20202;-79
2022/11/19 05:14:49;;;;;;;19.93;12.17;;;-3.00;99.90;;;;;;5075600;28;20206;-80
2022/11/19 05:17:16;;;;;;;20.73;12.07;;;-3.00;99.90;;;;;;5075697;28;20221;-79
2022/11/19 05:19:42;;;;;;;21.33;12.13;;;-3.10;99.90;;;;;;5075729;28;20198;-79
2022/11/19 05:22:09;;;;;;;20.83;12.57;;;-3.10;99.90;;;;;;5075289;28;20296;-78
2022/11/19 05:24:36;;;;;;;21.37;12.57;;;-3.10;99.90;;;;;;5075337;28;20202;-79
2022/11/19 05:27:03;;;;;;;21.57;12.93;;;-3.20;99.90;;;;;;5081445;28;20220;-79
2022/11/19 05:29:30;;;;;;;22.00;12.73;;;-3.20;99.90;;;;;;5091326;28;20197;-79
2022/11/19 05:31:58;;;;;;;20.97;12.20;;;-3.00;99.90;;;;;;5095524;28;20233;-79
2022/11/19 05:34:25;;;;;;;21.60;12.53;;;-3.00;99.90;;;;;;5095445;28;20291;-81
2022/11/19 05:36:51;;;;;;;19.33;11.40;;;-3.00;99.90;;;;;;5084328;28;20190;-78
2022/11/19 05:39:18;;;;;;;20.93;12.37;;;-3.00;99.90;;;;;;5100122;28;20219;-78
2022/11/19 05:41:45;;;;;;;22.10;12.17;;;-3.10;99.90;;;;;;5085448;28;20193;-79
2022/11/19 05:44:12;;;;;;;19.67;11.83;;;-3.20;99.90;;;;;;5083995;28;20209;-79
2022/11/19 05:46:39;;;;;;;20.33;12.20;;;-3.30;99.90;;;;;;5078010;28;20210;-80
2022/11/19 05:49:07;;;;;;;18.90;11.13;;;-3.50;99.90;;;;;;5084623;28;20214;-80
2022/11/19 05:51:34;;;;;;;20.83;12.27;;;-3.60;99.90;;;;;;5092984;28;20201;-79
2022/11/19 05:54:01;;;;;;;20.13;11.83;;;-3.60;99.90;;;;;;5092846;28;20194;-79
2022/11/19 05:56:27;;;;;;;20.03;12.37;;;-3.50;99.90;;;;;;5089753;28;20209;-80
2022/11/19 05:58:54;;;;;;;18.70;11.83;;;-3.60;99.90;;;;;;5093983;28;20209;-79
2022/11/19 06:01:25;;;;;;;20.53;12.50;;;-3.60;99.90;;;;;;5087805;28;20256;-79
2022/11/19 06:03:52;;;;;;;24.10;13.77;;;-3.30;99.90;;;;;;5091935;28;20196;-78
2022/11/19 06:06:20;;;;;;;23.87;13.23;;;-3.20;99.90;;;;;;5093063;28;20198;-79
2022/11/19 06:08:47;;;;;;;22.73;13.80;;;-3.20;99.90;;;;;;5089808;28;20222;-79
2022/11/19 06:13:55;;;;;;;21.90;13.70;;;-3.20;99.90;;;;;;5087350;28;20289;-78
2022/11/19 06:16:22;;;;;;;25.60;14.93;;;-3.10;99.90;;;;;;5080593;28;20212;-78
2022/11/19 06:18:49;;;;;;;23.07;14.00;;;-3.00;99.90;;;;;;5094416;28;20218;-79
2022/11/19 06:21:16;;;;;;;23.13;14.27;;;-3.10;99.90;;;;;;5090076;28;20201;-78
2022/11/19 06:23:44;;;;;;;23.60;14.07;;;-3.10;99.90;;;;;;5097638;28;20202;-77
2022/11/19 06:26:11;;;;;;;21.63;13.87;;;-3.10;99.90;;;;;;5095402;28;20210;-78
2022/11/19 06:28:38;;;;;;;24.27;13.97;;;-3.30;99.90;;;;;;5094599;28;20226;-78
2022/11/19 06:31:05;;;;;;;23.93;14.03;;;-3.30;99.90;;;;;;5085857;28;20194;-78
2022/11/19 06:33:31;;;;;;;23.83;14.73;;;-3.30;99.90;;;;;;5092749;28;20197;-81
2022/11/19 06:35:58;;;;;;;25.00;14.83;;;-3.30;99.90;;;;;;5083757;28;20204;-79
2022/11/19 06:38:25;;;;;;;24.23;14.40;;;-3.20;99.90;;;;;;5088657;28;20214;-79
2022/11/19 06:40:53;;;;;;;22.03;13.60;;;-3.30;99.90;;;;;;5094684;28;20201;-81
2022/11/19 06:43:20;;;;;;;21.60;13.33;;;-3.40;99.90;;;;;;5087573;28;20210;-79
2022/11/19 06:45:47;;;;;;;21.23;12.63;;;-3.30;99.90;;;;;;5084632;28;20209;-80
2022/11/19 06:48:13;;;;;;;21.63;12.53;;;-3.40;99.90;;;;;;5088005;28;20226;-79
2022/11/19 06:50:40;;;;;;;23.33;14.03;;;-3.30;99.90;;;;;;5099029;28;20195;-79
2022/11/19 06:53:07;;;;;;;23.27;13.70;;;-3.40;99.90;;;;;;5089201;28;20748;-77
2022/11/19 06:55:34;;;;;;;21.70;11.47;;;-3.30;99.90;;;;;;5094675;28;20539;-80
2022/11/19 06:58:04;;;;;;;21.17;12.80;;;-3.30;99.90;;;;;;5097202;28;20736;-81
2022/11/19 07:00:31;;;;;;;21.87;13.10;;;-3.30;99.90;;;;;;5082973;28;20255;-80
2022/11/19 07:02:58;;;;;;;21.70;13.20;;;-3.40;99.90;;;;;;5078222;28;20672;-78
2022/11/19 07:05:25;;;;;;;23.13;14.13;;;-3.30;99.90;;;;;;5097010;28;20910;-78
2022/11/19 07:07:52;;;;;;;23.53;13.07;;;-3.30;99.90;;;;;;5088119;28;20224;-79
2022/11/19 07:10:19;;;;;;;21.10;12.90;;;-3.30;99.90;;;;;;5084833;28;20259;-78
2022/11/19 07:12:46;;;;;;;22.57;13.40;;;-3.30;99.90;;;;;;5083934;28;20659;-80
2022/11/19 07:15:14;;;;;;;22.43;13.17;;;-3.20;99.90;;;;;;5093570;28;20772;-79
2022/11/19 07:17:42;;;;;;;22.73;13.30;;;-3.20;99.90;;;;;;5088132;28;20749;-79
2022/11/19 07:20:10;;;;;;;19.00;11.63;;;-3.20;99.90;;;;;;5089817;28;20202;-80
2022/11/19 07:22:37;;;;;;;22.13;12.87;;;-3.20;99.90;;;;;;5099205;28;20227;-80
2022/11/19 07:25:04;;;;;;;21.80;13.10;;;-3.20;99.90;;;;;;5085132;28;20567;-80
2022/11/19 07:27:31;;;;;;;21.57;11.97;;;-3.10;99.90;;;;;;5080690;28;20226;-80
2022/11/19 07:29:58;;;;;;;22.70;13.63;;;-3.10;99.90;;;;;;5101876;28;20230;-79
2022/11/19 07:32:26;;;;;;;21.90;12.77;;;-3.10;99.90;;;;;;5095423;28;20197;-80
2022/11/19 07:34:53;;;;;;;21.80;12.50;;;-2.90;99.90;;;;;;5085621;28;20198;-79
2022/11/19 07:37:20;;;;;;;22.03;12.97;;;-2.70;99.90;;;;;;5088339;28;20607;-79
2022/11/19 07:39:47;;;;;;;22.07;12.90;;;-2.60;99.90;;;;;;5090633;28;20220;-79
2022/11/19 07:44:58;;;;;;;22.67;12.63;;;-2.60;99.90;;;;;;5073466;28;20568;-82
2022/11/19 07:47:26;;;;;;;22.50;12.60;;;-2.70;99.90;;;;;;5080855;28;20239;-79
2022/11/19 07:49:53;;;;;;;22.60;12.60;;;-2.70;99.90;;;;;;5074699;28;20212;-79
2022/11/19 07:52:20;;;;;;;21.33;12.87;;;-2.60;99.90;;;;;;5077104;28;20214;-80
2022/11/19 07:54:47;;;;;;;22.27;13.53;;;-2.60;99.90;;;;;;5084329;28;20473;-84
2022/11/19 07:57:14;;;;;;;22.50;13.20;;;-2.50;99.90;;;;;;5071150;28;20706;-82
2022/11/19 07:59:41;;;;;;;24.17;14.60;;;-2.50;99.90;;;;;;5073247;28;20213;-81
2022/11/19 08:02:10;;;;;;;25.10;14.43;;;-2.60;99.90;;;;;;5072156;28;20616;-83
2022/11/19 08:04:38;;;;;;;25.90;14.10;;;-2.60;99.90;;;;;;5073594;28;20206;-81
2022/11/19 08:07:05;;;;;;;24.13;14.00;;;-2.50;99.90;;;;;;5079328;28;20580;-82
2022/11/19 08:09:32;;;;;;;25.03;13.83;;;-2.40;99.90;;;;;;5095481;28;20308;-83
2022/11/19 08:11:59;;;;;;;25.13;13.40;;;-2.10;99.90;;;;;;5092220;28;20207;-83
2022/11/19 08:14:25;;;;;;;21.93;12.73;;;-2.20;99.90;;;;;;5094565;28;20212;-83
2022/11/19 08:19:38;;;;;;;24.17;13.67;;;-2.20;99.90;;;;;;5095426;28;20619;-83
2022/11/19 08:22:05;;;;;;;22.60;14.03;;;-2.10;99.90;;;;;;5085693;28;20208;-82
2022/11/19 08:24:31;;;;;;;29.83;16.80;;;-2.00;99.90;;;;;;5075872;28;20658;-83
2022/11/19 08:26:58;;;;;;;23.00;12.50;;;-1.80;99.90;;;;;;5085783;28;20292;-82
2022/11/19 08:29:25;;;;;;;22.47;13.73;;;-1.80;99.90;;;;;;5072173;28;20230;-82
2022/11/19 08:31:52;;;;;;;27.80;19.70;;;-1.90;99.90;;;;;;5082025;28;20206;-83
2022/11/19 08:34:19;;;;;;;21.73;12.77;;;-2.00;99.90;;;;;;5095382;28;20215;-83
2022/11/19 08:36:47;;;;;;;21.00;11.50;;;-1.90;99.90;;;;;;5086885;28;20212;-82
2022/11/19 08:39:14;;;;;;;20.27;12.60;;;-1.50;99.90;;;;;;5074707;28;20225;-84
2022/11/19 08:44:25;;;;;;;22.67;13.07;;;-1.60;99.90;;;;;;5076231;28;20653;-83
2022/11/19 08:46:51;;;;;;;22.97;12.70;;;-1.50;99.90;;;;;;5075703;28;20210;-81
2022/11/19 08:49:18;;;;;;;23.60;13.70;;;-1.40;99.90;;;;;;5072160;28;20218;-83
2022/11/19 08:51:47;;;;;;;22.33;11.70;;;-1.50;99.90;;;;;;5076783;28;20749;-82
2022/11/19 08:54:13;;;;;;;22.00;11.67;;;-1.80;99.90;;;;;;5095113;28;20221;-82
2022/11/19 08:56:40;;;;;;;23.77;12.90;;;-1.90;99.90;;;;;;5094289;28;20201;-82
2022/11/19 08:59:07;;;;;;;21.63;12.10;;;-1.80;99.90;;;;;;5091064;28;20245;-82
2022/11/19 09:01:35;;;;;;;21.03;10.87;;;-1.80;99.90;;;;;;5091277;28;20202;-83
2022/11/19 09:04:01;;;;;;;21.47;13.07;;;-2.00;99.90;;;;;;5095585;28;21199;-82
2022/11/19 09:06:28;;;;;;;21.83;11.23;;;-2.00;99.90;;;;;;5089247;28;20206;-81
2022/11/19 09:08:57;;;;;;;22.53;12.33;;;-1.10;99.90;;;;;;5093609;28;20228;-84
2022/11/19 09:11:24;;;;;;;22.03;13.37;;;-0.30;99.90;;;;;;5103317;28;20202;-83
2022/11/19 09:13:50;;;;;;;20.53;10.57;;;0.00;99.90;;;;;;5097656;28;20198;-82
2022/11/19 09:16:17;;;;;;;22.83;12.50;;;0.10;99.90;;;;;;5093973;28;20209;-82
2022/11/19 09:18:44;;;;;;;22.90;12.17;;;-0.20;99.90;;;;;;5091554;28;20213;-84
2022/11/19 09:21:12;;;;;;;23.57;11.67;;;-0.60;99.90;;;;;;5098370;28;20204;-82
2022/11/19 09:23:41;;;;;;;24.73;11.57;;;-0.80;99.90;;;;;;5093906;28;21620;-81
2022/11/19 09:26:12;;;;;;;21.77;11.77;;;-0.70;99.90;;;;;;5083783;28;20367;-82
2022/11/19 09:28:39;;;;;;;22.67;11.40;;;-0.60;99.90;;;;;;5104899;28;20216;-82
2022/11/19 09:31:09;;;;;;;21.60;12.40;;;-0.50;99.90;;;;;;5094625;28;20198;-84
2022/11/19 09:33:38;;;;;;;20.70;10.60;;;-0.30;99.90;;;;;;5083841;28;20207;-82
2022/11/19 09:36:06;;;;;;;22.07;11.53;;;-0.20;99.90;;;;;;5086279;28;20288;-82
2022/11/19 09:38:33;;;;;;;20.23;10.27;;;-0.10;99.90;;;;;;5094288;28;20209;-82
2022/11/19 09:41:11;;;;;;;20.40;10.80;;;0.00;99.90;;;;;;5083666;28;20198;-82
2022/11/19 09:43:50;;;;;;;22.10;12.23;;;0.10;99.90;;;;;;5090996;28;20204;-81
2022/11/19 09:46:24;;;;;;;18.97;9.90;;;0.20;99.90;;;;;;5089772;28;20289;-81
2022/11/19 09:48:54;;;;;;;22.00;11.07;;;0.50;99.90;;;;;;5087779;28;20229;-81
2022/11/19 09:51:28;;;;;;;21.07;10.60;;;0.60;99.90;;;;;;5091082;28;20212;-81
2022/11/19 09:53:59;;;;;;;21.43;10.70;;;0.60;99.90;;;;;;5097679;28;20569;-81
2022/11/19 09:56:29;;;;;;;21.63;11.47;;;0.70;99.90;;;;;;5085981;28;20688;-81
2022/11/19 09:58:59;;;;;;;20.97;11.20;;;1.00;99.90;;;;;;5093244;28;20584;-81
2022/11/19 10:01:29;;;;;;;20.70;10.97;;;1.10;99.90;;;;;;5090663;28;20204;-81
2022/11/19 10:03:56;;;;;;;19.10;10.53;;;1.00;99.90;;;;;;5088779;28;20539;-81
2022/11/19 10:06:28;;;;;;;21.03;11.23;;;1.30;99.90;;;;;;5087169;28;20215;-81
2022/11/19 10:09:42;;;;;;;20.90;10.47;;;1.50;99.90;;;;;;5098269;28;20585;-81
2022/11/19 10:12:20;;;;;;;19.20;10.33;;;1.80;99.90;;;;;;5083411;28;20204;-82
2022/11/19 10:14:58;;;;;;;18.80;9.77;;;2.30;98.10;;;;;;5083115;28;20193;-82
2022/11/19 10:17:33;;;;;;;18.97;10.03;;;2.30;1.00;;;;;;5098915;28;20220;-81
2022/11/19 10:20:25;;;;;;;16.80;9.10;;;2.10;1.00;;;;;;5084889;28;20197;-82
2022/11/19 10:22:56;;;;;;;15.67;8.53;;;2.10;1.00;;;;;;5085582;28;20553;-81
2022/11/19 10:25:27;;;;;;;16.53;8.93;;;1.70;1.00;;;;;;5097025;28;20201;-82
2022/11/19 10:27:59;;;;;;;15.77;8.73;;;2.10;99.90;;;;;;5088335;28;20226;-81
2022/11/19 10:30:30;;;;;;;16.07;8.90;;;2.30;99.90;;;;;;5094254;28;20545;-81
2022/11/19 10:33:01;;;;;;;15.67;8.43;;;2.10;1.00;;;;;;5095802;28;20201;-81
2022/11/19 10:35:32;;;;;;;16.10;8.63;;;2.20;1.00;;;;;;5094576;28;20197;-81
2022/11/19 10:38:01;;;;;;;19.03;8.80;;;2.50;1.00;;;;;;5096121;28;20573;-81
2022/11/19 10:40:32;;;;;;;15.63;7.90;;;2.50;1.00;;;;;;5076879;28;20199;-81
2022/11/19 10:43:13;;;;;;;14.53;7.83;;;2.50;99.90;;;;;;5077286;28;20206;-81
2022/11/19 10:45:41;;;;;;;17.10;8.50;;;2.50;1.00;;;;;;5075895;28;20658;-81
2022/11/19 10:48:13;;;;;;;14.30;8.30;;;1.90;1.00;;;;;;5077356;28;20222;-81
2022/11/19 10:50:40;;;;;;;14.97;8.30;;;2.10;59.60;;;;;;5094973;28;20205;-81
2022/11/19 10:53:13;;;;;;;15.43;8.33;;;1.90;1.00;;;;;;5093151;28;20205;-81
2022/11/19 10:55:43;;;;;;;16.93;9.10;;;2.10;1.00;;;;;;5074420;28;20688;-80
2022/11/19 10:58:16;;;;;;;16.23;9.30;;;2.20;79.60;;;;;;5075127;28;20594;-80
2022/11/19 11:00:44;;;;;;;18.80;9.97;;;2.00;1.00;;;;;;5075064;28;20201;-81
2022/11/19 11:03:20;;;;;;;21.57;10.50;;;2.10;29.00;;;;;;5074624;28;20224;-80
2022/11/19 11:05:56;;;;;;;17.07;9.47;;;2.20;1.00;;;;;;5074820;28;20201;-81
2022/11/19 11:08:23;;;;;;;19.07;9.63;;;2.30;1.00;;;;;;5076027;28;20309;-80
2022/11/19 11:10:51;;;;;;;16.07;8.53;;;2.70;1.00;;;;;;5096094;28;20292;-80
2022/11/19 11:16:17;;;;;;;18.60;9.40;;;2.60;99.90;;;;;;5094789;28;20206;-80
2022/11/19 11:18:46;;;;;;;16.33;8.70;;;2.70;1.00;;;;;;5094231;28;20584;-81
2022/11/19 11:21:23;;;;;;;14.57;8.27;;;2.60;1.00;;;;;;5095704;28;20205;-81
2022/11/19 11:23:53;;;;;;;16.57;8.80;;;2.20;99.90;;;;;;5094408;28;20289;-81
2022/11/19 11:26:23;;;;;;;16.13;8.67;;;2.00;1.00;;;;;;5094896;28;20223;-81
2022/11/19 11:28:56;;;;;;;15.67;8.47;;;1.90;10.30;;;;;;5094998;28;20257;-81
2022/11/19 11:31:38;;;;;;;17.23;9.00;;;1.70;63.50;;;;;;5094869;28;20288;-80
2022/11/19 11:34:06;;;;;;;18.23;9.83;;;1.70;99.90;;;;;;5091218;28;20198;-82
2022/11/19 11:36:36;;;;;;;15.80;8.53;;;1.70;1.00;;;;;;5075512;28;20213;-80
2022/11/19 11:39:04;;;;;;;19.10;9.80;;;1.50;1.00;;;;;;5095346;28;20218;-81
2022/11/19 11:41:40;;;;;;;18.33;8.53;;;1.40;1.00;;;;;;5093894;28;20208;-81
2022/11/19 11:44:15;;;;;;;15.67;8.27;;;1.70;1.00;;;;;;5074673;28;20206;-81
2022/11/19 11:46:46;;;;;;;15.73;7.97;;;3.10;1.00;;;;;;5074900;28;20206;-81
2022/11/19 11:49:29;;;;;;;16.67;8.10;;;3.70;1.00;;;;;;5094033;28;20225;-81
2022/11/19 11:52:03;;;;;;;16.30;8.47;;;4.60;1.00;;;;;;5091568;28;20288;-81
2022/11/19 11:54:29;;;;;;;17.60;8.53;;;4.10;99.90;;;;;;5094836;28;20567;-81
2022/11/19 11:57:14;;;;;;;15.83;8.73;;;3.80;1.00;;;;;;5094614;28;20197;-81
2022/11/19 11:59:41;;;;;;;14.53;7.63;;;2.80;1.00;;;;;;5094272;28;20220;-81
2022/11/19 12:02:21;;;;;;;17.10;8.90;;;2.70;1.00;;;;;;5091665;28;20197;-81
2022/11/19 12:04:49;;;;;;;16.43;8.83;;;3.10;1.00;;;;;;5076169;28;20205;-81
2022/11/19 12:07:29;;;;;;;18.33;8.53;;;4.00;1.00;;;;;;5096151;28;20218;-81
2022/11/19 12:10:07;;;;;;;15.53;8.00;;;3.30;99.90;;;;;;5098498;28;20221;-81
2022/11/19 12:12:40;;;;;;;18.10;8.43;;;3.60;1.00;;;;;;5097462;28;20215;-81
2022/11/19 12:15:18;;;;;;;16.97;8.03;;;4.20;1.00;;;;;;5098800;28;20204;-81
2022/11/19 12:17:54;;;;;;;14.87;8.40;;;3.90;45.10;;;;;;5101799;28;20225;-83
2022/11/19 12:20:30;;;;;;;15.07;8.63;;;3.50;41.00;;;;;;5103069;28;20190;-82
2022/11/19 12:23:26;;;;;;;12.53;7.67;;;3.20;97.70;;;;;;5098073;28;20292;-80
2022/11/19 12:26:11;;;;;;;13.60;7.37;;;3.20;36.80;;;;;;5097363;28;20205;-82
2022/11/19 12:28:50;;;;;;;14.07;7.83;;;3.70;1.00;;;;;;5107927;28;20284;-81
2022/11/19 12:31:27;;;;;;;12.30;7.53;;;4.10;1.00;;;;;;5101212;28;20204;-81
2022/11/19 12:34:08;;;;;;;14.73;7.60;;;3.80;1.00;;;;;;5093769;28;20547;-80
2022/11/19 12:36:47;;;;;;;12.00;7.73;;;4.10;1.00;;;;;;5083455;28;20661;-81
2022/11/19 12:39:30;;;;;;;14.37;8.50;;;4.00;1.00;;;;;;5090148;28;20699;-81
2022/11/19 12:42:15;;;;;;;12.97;8.20;;;2.70;1.00;;;;;;5077941;28;20587;-81
2022/11/19 12:44:55;;;;;;;15.77;7.90;;;2.30;1.00;;;;;;5077729;28;20214;-80
2022/11/19 12:47:34;;;;;;;16.03;8.33;;;2.40;1.00;;;;;;5090663;28;20712;-81
2022/11/19 12:50:16;;;;;;;12.87;7.23;;;2.40;1.00;;;;;;5094770;28;20223;-80
2022/11/19 12:53:09;;;;;;;14.27;7.37;;;2.40;93.60;;;;;;5093007;28;20511;-81
2022/11/19 12:55:47;;;;;;;13.90;7.70;;;2.60;1.00;;;;;;5091070;28;20552;-83
2022/11/19 12:58:22;;;;;;;14.83;6.87;;;3.10;99.90;;;;;;5089008;28;20226;-81
2022/11/19 13:00:53;;;;;;;13.53;7.50;;;3.10;99.90;;;;;;5095196;28;20193;-81
2022/11/19 13:03:26;;;;;;;12.97;7.90;;;3.10;99.90;;;;;;5108939;28;20206;-80
2022/11/19 13:06:02;;;;;;;13.60;8.43;;;3.70;1.00;;;;;;5095305;28;20680;-81
2022/11/19 13:08:36;;;;;;;14.83;7.97;;;3.90;1.00;;;;;;5101797;28;20221;-80
2022/11/19 13:11:08;;;;;;;13.53;7.23;;;3.70;1.00;;;;;;5091105;28;20528;-81
2022/11/19 13:13:38;;;;;;;12.40;7.07;;;3.20;1.00;;;;;;5089787;28;20199;-81
2022/11/19 13:16:09;;;;;;;13.00;7.53;;;3.60;1.00;;;;;;5091348;28;20228;-81
2022/11/19 13:18:39;;;;;;;13.10;7.27;;;3.90;1.00;;;;;;5095499;28;20218;-81
2022/11/19 13:21:16;;;;;;;13.33;6.80;;;3.70;1.00;;;;;;5110644;28;20196;-81